Saticoy, California
Current Conditions -  °F | °C
As of 3:51 AM on Thursday 18 Dec 2014 (Local Time) from KOXR Reporting Station
Overcast Overcast  
Wind Chill: 52°   Ceiling: 6000
Heat Index: 52°   Visibility: 10mi
Dew Point: 41°   Wind: 9mph
Humidity: 66%   Direction: 40°NE
Pressure: 30.12"   Gusts: NA
Location:  34.287°N, 119.172°W
Report Text: KOXR 181151Z AUTO 04008KT 10SM OVC060 11/05 A3012 RMK AO2 SLP199 T01110050 10117 20100 51005
Loading
Personal Weather Stations






























Interactive Weather Map New forecast layout! Learn more

10-Day Weather Forecast

Advertisements
Track Severe Weather on mobile